sensor_id;sensor_type;location;lat;lon;timestamp;pressure;altitude;pressure_sealevel;temperature;humidity
5609;BME280;2826;51.354;9.588;2023-11-21T00:01:54;97518.34;;;7.76;91.18
5609;BME280;2826;51.354;9.588;2023-11-21T00:04:22;97524.16;;;7.81;91.04
5609;BME280;2826;51.354;9.588;2023-11-21T00:06:50;97526.50;;;7.88;90.83
5609;BME280;2826;51.354;9.588;2023-11-21T00:09:17;97519.53;;;7.90;91.25
5609;BME280;2826;51.354;9.588;2023-11-21T00:11:45;97520.81;;;8.02;91.82
5609;BME280;2826;51.354;9.588;2023-11-21T00:14:11;97523.84;;;8.11;91.82
5609;BME280;2826;51.354;9.588;2023-11-21T00:16:40;97532.91;;;8.22;92.27
5609;BME280;2826;51.354;9.588;2023-11-21T00:19:07;97531.69;;;8.31;92.01
5609;BME280;2826;51.354;9.588;2023-11-21T00:21:33;97528.78;;;8.39;91.76
5609;BME280;2826;51.354;9.588;2023-11-21T00:24:02;97524.19;;;8.45;91.97
5609;BME280;2826;51.354;9.588;2023-11-21T00:26:28;97525.97;;;8.45;91.53
5609;BME280;2826;51.354;9.588;2023-11-21T00:29:00;97531.94;;;8.45;91.33
5609;BME280;2826;51.354;9.588;2023-11-21T00:31:27;97535.50;;;8.43;91.11
5609;BME280;2826;51.354;9.588;2023-11-21T00:33:55;97537.38;;;8.39;91.10
5609;BME280;2826;51.354;9.588;2023-11-21T00:36:21;97535.81;;;8.35;90.82
5609;BME280;2826;51.354;9.588;2023-11-21T00:38:48;97531.63;;;8.32;91.00
5609;BME280;2826;51.354;9.588;2023-11-21T00:41:16;97530.06;;;8.28;91.00
5609;BME280;2826;51.354;9.588;2023-11-21T00:43:43;97537.06;;;8.26;91.25
5609;BME280;2826;51.354;9.588;2023-11-21T00:46:10;97537.94;;;8.25;91.11
5609;BME280;2826;51.354;9.588;2023-11-21T00:48:37;97546.66;;;8.22;90.83
5609;BME280;2826;51.354;9.588;2023-11-21T00:51:04;97549.22;;;8.22;90.74
5609;BME280;2826;51.354;9.588;2023-11-21T00:53:31;97536.63;;;8.15;90.85
5609;BME280;2826;51.354;9.588;2023-11-21T00:55:58;97544.31;;;8.16;91.17
5609;BME280;2826;51.354;9.588;2023-11-21T00:58:26;97536.63;;;8.15;91.60
5609;BME280;2826;51.354;9.588;2023-11-21T01:00:53;97547.81;;;8.15;91.59
5609;BME280;2826;51.354;9.588;2023-11-21T01:03:20;97546.00;;;8.17;91.46
5609;BME280;2826;51.354;9.588;2023-11-21T01:05:47;97551.03;;;8.20;91.37
5609;BME280;2826;51.354;9.588;2023-11-21T01:08:15;97537.53;;;8.14;91.62
5609;BME280;2826;51.354;9.588;2023-11-21T01:10:42;97555.06;;;8.28;91.61
5609;BME280;2826;51.354;9.588;2023-11-21T01:13:09;97552.59;;;8.24;91.17
5609;BME280;2826;51.354;9.588;2023-11-21T01:15:38;97559.38;;;8.27;91.36
5609;BME280;2826;51.354;9.588;2023-11-21T01:18:04;97557.50;;;8.31;91.37
5609;BME280;2826;51.354;9.588;2023-11-21T01:20:31;97559.28;;;8.30;91.58
5609;BME280;2826;51.354;9.588;2023-11-21T01:22:58;97559.28;;;8.30;91.32
5609;BME280;2826;51.354;9.588;2023-11-21T01:25:26;97565.31;;;8.29;91.55
5609;BME280;2826;51.354;9.588;2023-11-21T01:27:53;97562.69;;;8.31;91.70
5609;BME280;2826;51.354;9.588;2023-11-21T01:30:20;97569.47;;;8.33;91.38
5609;BME280;2826;51.354;9.588;2023-11-21T01:32:48;97572.00;;;8.35;91.43
5609;BME280;2826;51.354;9.588;2023-11-21T01:35:16;97567.63;;;8.37;91.41
5609;BME280;2826;51.354;9.588;2023-11-21T01:37:42;97564.06;;;8.40;91.23
5609;BME280;2826;51.354;9.588;2023-11-21T01:40:09;97571.63;;;8.44;91.26
5609;BME280;2826;51.354;9.588;2023-11-21T01:42:39;97570.59;;;8.48;91.43
5609;BME280;2826;51.354;9.588;2023-11-21T01:45:07;97574.94;;;8.48;91.04
5609;BME280;2826;51.354;9.588;2023-11-21T01:47:35;97574.03;;;8.49;91.26
5609;BME280;2826;51.354;9.588;2023-11-21T01:50:06;97570.53;;;8.50;90.89
5609;BME280;2826;51.354;9.588;2023-11-21T01:52:34;97578.13;;;8.55;90.87
5609;BME280;2826;51.354;9.588;2023-11-21T01:55:02;97579.03;;;8.54;91.19
5609;BME280;2826;51.354;9.588;2023-11-21T01:57:29;97580.72;;;8.55;91.03
5609;BME280;2826;51.354;9.588;2023-11-21T01:59:58;97563.75;;;8.47;91.54
5609;BME280;2826;51.354;9.588;2023-11-21T02:02:26;97577.03;;;8.60;91.56
5609;BME280;2826;51.354;9.588;2023-11-21T02:04:52;97581.31;;;8.61;91.53
5609;BME280;2826;51.354;9.588;2023-11-21T02:07:20;97588.97;;;8.63;91.38
5609;BME280;2826;51.354;9.588;2023-11-21T02:09:50;97595.25;;;8.57;90.64
5609;BME280;2826;51.354;9.588;2023-11-21T02:12:17;97595.47;;;8.51;91.18
5609;BME280;2826;51.354;9.588;2023-11-21T02:14:44;97598.47;;;8.40;91.26
5609;BME280;2826;51.354;9.588;2023-11-21T02:17:11;97603.78;;;8.37;91.41
5609;BME280;2826;51.354;9.588;2023-11-21T02:19:38;97610.13;;;8.28;90.65
5609;BME280;2826;51.354;9.588;2023-11-21T02:22:05;97607.72;;;8.01;89.80
5609;BME280;2826;51.354;9.588;2023-11-21T02:24:34;97601.84;;;7.97;90.66
5609;BME280;2826;51.354;9.588;2023-11-21T02:27:02;97602.56;;;8.01;91.08
5609;BME280;2826;51.354;9.588;2023-11-21T02:29:29;97601.56;;;8.05;91.34
5609;BME280;2826;51.354;9.588;2023-11-21T02:31:55;97575.28;;;7.94;91.63
5609;BME280;2826;51.354;9.588;2023-11-21T02:34:23;97598.59;;;8.15;91.33
5609;BME280;2826;51.354;9.588;2023-11-21T02:36:50;97605.22;;;8.22;91.37
5609;BME280;2826;51.354;9.588;2023-11-21T02:39:17;97597.34;;;8.25;91.64
5609;BME280;2826;51.354;9.588;2023-11-21T02:41:48;97597.06;;;8.33;91.38
5609;BME280;2826;51.354;9.588;2023-11-21T02:44:15;97597.78;;;8.36;91.70
5609;BME280;2826;51.354;9.588;2023-11-21T02:46:42;97606.16;;;8.42;91.62
5609;BME280;2826;51.354;9.588;2023-11-21T02:49:08;97601.72;;;8.45;91.32
5609;BME280;2826;51.354;9.588;2023-11-21T02:51:36;97600.78;;;8.48;91.73
5609;BME280;2826;51.354;9.588;2023-11-21T02:54:05;97598.88;;;8.53;91.62
5609;BME280;2826;51.354;9.588;2023-11-21T02:56:33;97582.84;;;8.43;91.57
5609;BME280;2826;51.354;9.588;2023-11-21T02:59:01;97597.75;;;8.59;91.16
5609;BME280;2826;51.354;9.588;2023-11-21T03:01:28;97598.56;;;8.61;91.50
5609;BME280;2826;51.354;9.588;2023-11-21T03:03:55;97605.34;;;8.63;91.53
5609;BME280;2826;51.354;9.588;2023-11-21T03:06:22;97615.69;;;8.63;91.24
5609;BME280;2826;51.354;9.588;2023-11-21T03:08:49;97616.44;;;8.66;91.21
5609;BME280;2826;51.354;9.588;2023-11-21T03:11:16;97616.44;;;8.66;91.54
5609;BME280;2826;51.354;9.588;2023-11-21T03:13:44;97613.03;;;8.65;91.21
5609;BME280;2826;51.354;9.588;2023-11-21T03:16:14;97615.69;;;8.63;91.20
5609;BME280;2826;51.354;9.588;2023-11-21T03:18:41;97621.59;;;8.66;91.08
5609;BME280;2826;51.354;9.588;2023-11-21T03:21:08;97622.53;;;8.65;91.09
5609;BME280;2826;51.354;9.588;2023-11-21T03:23:34;97626.94;;;8.62;90.98
5609;BME280;2826;51.354;9.588;2023-11-21T03:26:02;97624.44;;;8.59;90.73
5609;BME280;2826;51.354;9.588;2023-11-21T03:28:29;97620.25;;;8.57;90.83
5609;BME280;2826;51.354;9.588;2023-11-21T03:30:56;97622.97;;;8.52;90.74
5609;BME280;2826;51.354;9.588;2023-11-21T03:33:24;97624.19;;;8.43;90.64
5609;BME280;2826;51.354;9.588;2023-11-21T03:35:51;97632.97;;;8.39;90.25
5609;BME280;2826;51.354;9.588;2023-11-21T03:38:18;97630.69;;;8.31;90.62
5609;BME280;2826;51.354;9.588;2023-11-21T03:40:45;97630.03;;;8.26;90.49
5609;BME280;2826;51.354;9.588;2023-11-21T03:43:12;97636.34;;;8.19;90.36
5609;BME280;2826;51.354;9.588;2023-11-21T03:45:39;97635.84;;;8.09;90.27
5609;BME280;2826;51.354;9.588;2023-11-21T03:48:06;97633.59;;;8.00;90.33
5609;BME280;2826;51.354;9.588;2023-11-21T03:50:37;97634.81;;;7.91;90.50
5609;BME280;2826;51.354;9.588;2023-11-21T03:53:05;97635.00;;;7.84;90.23
5609;BME280;2826;51.354;9.588;2023-11-21T03:55:32;97638.59;;;7.80;90.41
5609;BME280;2826;51.354;9.588;2023-11-21T03:57:58;97634.59;;;7.73;90.17
5609;BME280;2826;51.354;9.588;2023-11-21T04:00:25;97638.19;;;7.69;90.41
5609;BME280;2826;51.354;9.588;2023-11-21T04:02:53;97635.75;;;7.64;89.99
5609;BME280;2826;51.354;9.588;2023-11-21T04:05:20;97646.25;;;7.60;89.89
5609;BME280;2826;51.354;9.588;2023-11-21T04:07:49;97647.25;;;7.55;89.95
5609;BME280;2826;51.354;9.588;2023-11-21T04:10:17;97628.91;;;7.39;90.06
5609;BME280;2826;51.354;9.588;2023-11-21T04:12:43;97640.84;;;7.42;90.51
5609;BME280;2826;51.354;9.588;2023-11-21T04:15:10;97647.06;;;7.36;90.28
5609;BME280;2826;51.354;9.588;2023-11-21T04:17:38;97644.53;;;7.35;90.09
5609;BME280;2826;51.354;9.588;2023-11-21T04:20:06;97637.78;;;7.30;90.22
5609;BME280;2826;51.354;9.588;2023-11-21T04:22:36;97653.41;;;7.27;90.02
5609;BME280;2826;51.354;9.588;2023-11-21T04:25:05;97646.66;;;7.23;89.87
5609;BME280;2826;51.354;9.588;2023-11-21T04:27:32;97658.84;;;7.18;90.07
5609;BME280;2826;51.354;9.588;2023-11-21T04:30:00;97665.13;;;7.11;89.81
5609;BME280;2826;51.354;9.588;2023-11-21T04:32:26;97661.09;;;7.02;89.46
5609;BME280;2826;51.354;9.588;2023-11-21T04:34:53;97668.38;;;6.90;89.32
5609;BME280;2826;51.354;9.588;2023-11-21T04:37:19;97673.31;;;6.70;88.64
5609;BME280;2826;51.354;9.588;2023-11-21T04:39:46;97676.72;;;6.43;89.01
5609;BME280;2826;51.354;9.588;2023-11-21T04:42:14;97676.88;;;6.37;90.06
5609;BME280;2826;51.354;9.588;2023-11-21T04:44:41;97688.25;;;6.31;90.13
5609;BME280;2826;51.354;9.588;2023-11-21T04:47:09;97686.56;;;6.28;90.49
5609;BME280;2826;51.354;9.588;2023-11-21T04:49:36;97690.09;;;6.26;90.81
5609;BME280;2826;51.354;9.588;2023-11-21T04:52:03;97699.41;;;6.30;90.73
5609;BME280;2826;51.354;9.588;2023-11-21T04:54:30;97703.06;;;6.23;91.22
5609;BME280;2826;51.354;9.588;2023-11-21T04:56:57;97715.09;;;6.22;91.23
5609;BME280;2826;51.354;9.588;2023-11-21T04:59:25;97712.31;;;6.28;91.69
5609;BME280;2826;51.354;9.588;2023-11-21T05:01:52;97718.09;;;6.37;91.64
5609;BME280;2826;51.354;9.588;2023-11-21T05:04:19;97717.81;;;6.46;91.64
5609;BME280;2826;51.354;9.588;2023-11-21T05:06:45;97714.16;;;6.53;91.43
5609;BME280;2826;51.354;9.588;2023-11-21T05:09:13;97710.53;;;6.61;91.66
5609;BME280;2826;51.354;9.588;2023-11-21T05:11:41;97712.00;;;6.68;91.69
5609;BME280;2826;51.354;9.588;2023-11-21T05:14:07;97717.00;;;6.74;91.98
5609;BME280;2826;51.354;9.588;2023-11-21T05:16:36;97717.63;;;6.81;91.71
5609;BME280;2826;51.354;9.588;2023-11-21T05:19:03;97718.31;;;6.86;91.79
5609;BME280;2826;51.354;9.588;2023-11-21T05:21:31;97726.06;;;7.13;91.50
5609;BME280;2826;51.354;9.588;2023-11-21T05:23:58;97716.34;;;7.22;90.54
5609;BME280;2826;51.354;9.588;2023-11-21T05:26:25;97728.69;;;7.37;90.22
5609;BME280;2826;51.354;9.588;2023-11-21T05:28:52;97725.81;;;7.47;90.02
5609;BME280;2826;51.354;9.588;2023-11-21T05:31:18;97734.25;;;7.52;89.81
5609;BME280;2826;51.354;9.588;2023-11-21T05:33:46;97733.41;;;7.51;90.06
5609;BME280;2826;51.354;9.588;2023-11-21T05:36:14;97734.88;;;7.58;90.43
5609;BME280;2826;51.354;9.588;2023-11-21T05:38:40;97736.53;;;7.61;90.16
5609;BME280;2826;51.354;9.588;2023-11-21T05:41:07;97738.97;;;7.64;89.97
5609;BME280;2826;51.354;9.588;2023-11-21T05:43:36;97739.91;;;7.62;90.36
5609;BME280;2826;51.354;9.588;2023-11-21T05:46:03;97738.25;;;7.61;90.28
5609;BME280;2826;51.354;9.588;2023-11-21T05:48:29;97738.88;;;7.67;90.38
5609;BME280;2826;51.354;9.588;2023-11-21T05:50:58;97741.31;;;7.72;90.12
5609;BME280;2826;51.354;9.588;2023-11-21T05:53:27;97741.31;;;7.72;90.51
5609;BME280;2826;51.354;9.588;2023-11-21T05:55:53;97741.09;;;7.78;89.99
5609;BME280;2826;51.354;9.588;2023-11-21T05:58:20;97738.41;;;7.81;90.28
5609;BME280;2826;51.354;9.588;2023-11-21T06:00:47;97741.72;;;7.85;90.37
5609;BME280;2826;51.354;9.588;2023-11-21T06:03:13;97748.53;;;7.86;90.42
5609;BME280;2826;51.354;9.588;2023-11-21T06:05:40;97753.59;;;7.89;90.21
5609;BME280;2826;51.354;9.588;2023-11-21T06:08:08;97757.81;;;7.92;90.22
5609;BME280;2826;51.354;9.588;2023-11-21T06:10:37;97764.72;;;7.91;90.85
5609;BME280;2826;51.354;9.588;2023-11-21T06:13:04;97764.78;;;7.90;91.49
5609;BME280;2826;51.354;9.588;2023-11-21T06:15:32;97770.72;;;7.92;91.26
5609;BME280;2826;51.354;9.588;2023-11-21T06:17:59;97776.75;;;7.92;91.61
5609;BME280;2826;51.354;9.588;2023-11-21T06:20:26;97778.16;;;8.01;90.98
5609;BME280;2826;51.354;9.588;2023-11-21T06:22:53;97777.28;;;8.01;90.90
5609;BME280;2826;51.354;9.588;2023-11-21T06:25:21;97778.16;;;8.01;91.31
5609;BME280;2826;51.354;9.588;2023-11-21T06:27:48;97780.69;;;8.03;91.02
5609;BME280;2826;51.354;9.588;2023-11-21T06:30:15;97785.75;;;8.06;91.11
5609;BME280;2826;51.354;9.588;2023-11-21T06:32:44;97783.03;;;8.09;91.03
5609;BME280;2826;51.354;9.588;2023-11-21T06:35:12;97786.56;;;8.06;91.60
5609;BME280;2826;51.354;9.588;2023-11-21T06:37:39;97786.56;;;8.06;91.21
5609;BME280;2826;51.354;9.588;2023-11-21T06:40:06;97787.38;;;8.08;91.50
5609;BME280;2826;51.354;9.588;2023-11-21T06:42:35;97787.31;;;8.10;91.27
5609;BME280;2826;51.354;9.588;2023-11-21T06:45:04;97793.22;;;8.14;91.23
5609;BME280;2826;51.354;9.588;2023-11-21T06:47:31;97792.34;;;8.13;91.12
5609;BME280;2826;51.354;9.588;2023-11-21T06:49:58;97798.41;;;8.12;91.23
5609;BME280;2826;51.354;9.588;2023-11-21T06:52:25;97806.91;;;8.16;91.17
5609;BME280;2826;51.354;9.588;2023-11-21T06:54:52;97812.91;;;8.16;91.13
5609;BME280;2826;51.354;9.588;2023-11-21T06:57:18;97806.94;;;8.14;90.94
5609;BME280;2826;51.354;9.588;2023-11-21T06:59:46;97814.53;;;8.19;91.18
5609;BME280;2826;51.354;9.588;2023-11-21T07:02:13;97811.97;;;8.19;90.86
5609;BME280;2826;51.354;9.588;2023-11-21T07:04:40;97819.03;;;8.14;90.95
5609;BME280;2826;51.354;9.588;2023-11-21T07:07:06;97820.91;;;8.10;91.27
5609;BME280;2826;51.354;9.588;2023-11-21T07:09:33;97818.22;;;8.11;91.26
5609;BME280;2826;51.354;9.588;2023-11-21T07:12:00;97825.16;;;8.11;91.61
5609;BME280;2826;51.354;9.588;2023-11-21T07:14:26;97829.47;;;8.10;91.50
5609;BME280;2826;51.354;9.588;2023-11-21T07:16:55;97831.13;;;8.11;91.54
5609;BME280;2826;51.354;9.588;2023-11-21T07:19:22;97836.31;;;8.11;91.67
5609;BME280;2826;51.354;9.588;2023-11-21T07:21:48;97836.44;;;8.08;92.16
5609;BME280;2826;51.354;9.588;2023-11-21T07:24:16;97849.31;;;8.10;92.23
5609;BME280;2826;51.354;9.588;2023-11-21T07:26:42;97847.44;;;8.14;91.87
5609;BME280;2826;51.354;9.588;2023-11-21T07:29:09;97857.72;;;8.15;92.31
5609;BME280;2826;51.354;9.588;2023-11-21T07:31:37;97859.44;;;8.15;92.50
5609;BME280;2826;51.354;9.588;2023-11-21T07:34:05;97865.41;;;8.17;92.33
5609;BME280;2826;51.354;9.588;2023-11-21T07:36:31;97866.16;;;8.20;92.41
5609;BME280;2826;51.354;9.588;2023-11-21T07:38:58;97868.78;;;8.19;92.33
5609;BME280;2826;51.354;9.588;2023-11-21T07:41:25;97874.63;;;8.24;92.17
5609;BME280;2826;51.354;9.588;2023-11-21T07:43:51;97870.25;;;8.26;92.51
5609;BME280;2826;51.354;9.588;2023-11-21T07:46:18;97870.03;;;8.32;92.39
5609;BME280;2826;51.354;9.588;2023-11-21T07:48:46;97875.09;;;8.35;92.10
5609;BME280;2826;51.354;9.588;2023-11-21T07:51:14;97877.47;;;8.42;92.22
5609;BME280;2826;51.354;9.588;2023-11-21T07:53:40;97880.72;;;8.47;92.49
5609;BME280;2826;51.354;9.588;2023-11-21T07:56:08;97879.91;;;8.46;91.99
5609;BME280;2826;51.354;9.588;2023-11-21T07:58:36;97878.09;;;8.48;92.21
5609;BME280;2826;51.354;9.588;2023-11-21T08:01:03;97888.38;;;8.50;92.10
5609;BME280;2826;51.354;9.588;2023-11-21T08:03:30;97894.19;;;8.57;91.44
5609;BME280;2826;51.354;9.588;2023-11-21T08:05:56;97853.63;;;8.33;91.55
5609;BME280;2826;51.354;9.588;2023-11-21T08:08:25;97899.25;;;8.60;91.99
5609;BME280;2826;51.354;9.588;2023-11-21T08:10:52;97896.72;;;8.58;91.68
5609;BME280;2826;51.354;9.588;2023-11-21T08:13:22;97902.81;;;8.57;91.62
5609;BME280;2826;51.354;9.588;2023-11-21T08:15:49;97903.53;;;8.61;91.62
5609;BME280;2826;51.354;9.588;2023-11-21T08:18:16;97891.72;;;8.52;91.80
5609;BME280;2826;51.354;9.588;2023-11-21T08:20:43;97914.59;;;8.65;91.58
5609;BME280;2826;51.354;9.588;2023-11-21T08:23:13;97915.53;;;8.62;91.55
5609;BME280;2826;51.354;9.588;2023-11-21T08:25:42;97918.06;;;8.63;91.51
5609;BME280;2826;51.354;9.588;2023-11-21T08:28:09;97924.09;;;8.64;91.77
5609;BME280;2826;51.354;9.588;2023-11-21T08:30:35;97925.78;;;8.65;91.76
5609;BME280;2826;51.354;9.588;2023-11-21T08:33:02;97918.84;;;8.66;91.53
5609;BME280;2826;51.354;9.588;2023-11-21T08:35:29;97924.81;;;8.68;91.75
5609;BME280;2826;51.354;9.588;2023-11-21T08:37:56;97923.81;;;8.72;91.67
5609;BME280;2826;51.354;9.588;2023-11-21T08:40:23;97914.44;;;8.69;91.44
5609;BME280;2826;51.354;9.588;2023-11-21T08:42:52;97924.78;;;8.69;91.28
5609;BME280;2826;51.354;9.588;2023-11-21T08:45:19;97927.50;;;8.65;91.56
5609;BME280;2826;51.354;9.588;2023-11-21T08:47:46;97931.78;;;8.66;91.57
5609;BME280;2826;51.354;9.588;2023-11-21T08:50:13;97924.81;;;8.68;91.64
5609;BME280;2826;51.354;9.588;2023-11-21T08:52:40;97929.94;;;8.69;91.88
5609;BME280;2826;51.354;9.588;2023-11-21T08:55:08;97933.44;;;8.68;91.99
5609;BME280;2826;51.354;9.588;2023-11-21T08:57:38;97934.25;;;8.69;91.79
5609;BME280;2826;51.354;9.588;2023-11-21T09:00:08;97935.94;;;8.70;91.72
5609;BME280;2826;51.354;9.588;2023-11-21T09:02:37;97936.63;;;8.75;91.87
5609;BME280;2826;51.354;9.588;2023-11-21T09:05:04;97940.97;;;8.74;91.85
5609;BME280;2826;51.354;9.588;2023-11-21T09:07:31;97936.69;;;8.73;91.47
5609;BME280;2826;51.354;9.588;2023-11-21T09:09:58;97943.53;;;8.74;92.16
5609;BME280;2826;51.354;9.588;2023-11-21T09:12:25;97944.25;;;8.78;92.00
5609;BME280;2826;51.354;9.588;2023-11-21T09:14:51;97940.91;;;8.76;91.99
5609;BME280;2826;51.354;9.588;2023-11-21T09:17:19;97954.59;;;8.78;91.84
5609;BME280;2826;51.354;9.588;2023-11-21T09:19:46;97954.50;;;8.81;91.52
5609;BME280;2826;51.354;9.588;2023-11-21T09:22:17;97958.09;;;8.77;92.02
5609;BME280;2826;51.354;9.588;2023-11-21T09:24:43;97956.31;;;8.79;91.62
5609;BME280;2826;51.354;9.588;2023-11-21T09:27:10;97959.81;;;8.76;91.96
5609;BME280;2826;51.354;9.588;2023-11-21T09:29:37;97966.75;;;8.76;92.01
5609;BME280;2826;51.354;9.588;2023-11-21T09:32:05;97971.75;;;8.81;92.09
5609;BME280;2826;51.354;9.588;2023-11-21T09:34:33;97964.75;;;8.84;92.22
5609;BME280;2826;51.354;9.588;2023-11-21T09:37:01;97957.03;;;8.83;92.37
5609;BME280;2826;51.354;9.588;2023-11-21T09:39:31;97959.34;;;8.91;92.27
5609;BME280;2826;51.354;9.588;2023-11-21T09:42:04;97957.38;;;8.97;92.14
5609;BME280;2826;51.354;9.588;2023-11-21T09:44:36;97964.91;;;9.04;91.86
5609;BME280;2826;51.354;9.588;2023-11-21T09:47:10;97966.38;;;9.11;91.64
5609;BME280;2826;51.354;9.588;2023-11-21T09:49:38;97971.38;;;9.15;91.94
5609;BME280;2826;51.354;9.588;2023-11-21T09:52:08;97976.66;;;9.12;91.29
5609;BME280;2826;51.354;9.588;2023-11-21T09:54:37;97967.03;;;9.16;91.71
5609;BME280;2826;51.354;9.588;2023-11-21T09:57:05;97972.06;;;9.21;91.43
5609;BME280;2826;51.354;9.588;2023-11-21T09:59:51;97981.25;;;9.28;92.03
5609;BME280;2826;51.354;9.588;2023-11-21T10:02:18;97984.66;;;9.30;91.68
5609;BME280;2826;51.354;9.588;2023-11-21T10:04:48;97983.69;;;9.33;91.35
5609;BME280;2826;51.354;9.588;2023-11-21T10:07:17;97967.94;;;9.15;91.13
5609;BME280;2826;51.354;9.588;2023-11-21T10:09:45;97983.84;;;9.28;91.15
5609;BME280;2826;51.354;9.588;2023-11-21T10:12:14;97991.78;;;9.23;91.21
5609;BME280;2826;51.354;9.588;2023-11-21T10:14:41;97987.06;;;9.11;90.58
5609;BME280;2826;51.354;9.588;2023-11-21T10:17:10;97991.28;;;9.13;91.09
5609;BME280;2826;51.354;9.588;2023-11-21T10:19:39;98002.34;;;9.17;91.31
5609;BME280;2826;51.354;9.588;2023-11-21T10:22:07;97955.22;;;8.85;90.98
5609;BME280;2826;51.354;9.588;2023-11-21T10:24:35;97998.13;;;9.14;91.15
5609;BME280;2826;51.354;9.588;2023-11-21T10:27:03;97993.91;;;9.12;91.71
5609;BME280;2826;51.354;9.588;2023-11-21T10:29:30;98011.19;;;9.11;91.98
5609;BME280;2826;51.354;9.588;2023-11-21T10:32:01;97998.28;;;9.11;91.79
5609;BME280;2826;51.354;9.588;2023-11-21T10:34:28;97993.34;;;9.04;91.37
5609;BME280;2826;51.354;9.588;2023-11-21T10:36:55;98003.69;;;9.04;91.68
5609;BME280;2826;51.354;9.588;2023-11-21T10:39:25;98006.28;;;9.04;91.90
5609;BME280;2826;51.354;9.588;2023-11-21T10:41:56;98011.41;;;9.05;92.48
5609;BME280;2826;51.354;9.588;2023-11-21T10:44:23;98008.72;;;9.08;92.36
5609;BME280;2826;51.354;9.588;2023-11-21T10:46:51;98011.19;;;9.11;92.75
5609;BME280;2826;51.354;9.588;2023-11-21T10:49:21;98013.66;;;9.14;92.80
5609;BME280;2826;51.354;9.588;2023-11-21T10:51:50;98010.75;;;9.24;92.16
5609;BME280;2826;51.354;9.588;2023-11-21T10:54:19;98014.88;;;9.28;91.87
5609;BME280;2826;51.354;9.588;2023-11-21T10:56:49;98011.53;;;9.26;91.75
5609;BME280;2826;51.354;9.588;2023-11-21T10:59:17;98008.94;;;9.26;91.35
5609;BME280;2826;51.354;9.588;2023-11-21T11:01:45;98013.56;;;9.18;92.14
5609;BME280;2826;51.354;9.588;2023-11-21T11:04:12;98015.28;;;9.17;92.77
5609;BME280;2826;51.354;9.588;2023-11-21T11:06:42;98015.28;;;9.17;93.07
5609;BME280;2826;51.354;9.588;2023-11-21T11:09:12;98017.00;;;9.18;92.98
5609;BME280;2826;51.354;9.588;2023-11-21T11:11:40;98010.75;;;9.24;92.89
5609;BME280;2826;51.354;9.588;2023-11-21T11:14:11;98016.59;;;9.29;93.15
5609;BME280;2826;51.354;9.588;2023-11-21T11:16:39;98014.84;;;9.30;93.06
5609;BME280;2826;51.354;9.588;2023-11-21T11:19:06;98021.78;;;9.29;93.04
5609;BME280;2826;51.354;9.588;2023-11-21T11:21:42;98020.00;;;9.30;92.81
5609;BME280;2826;51.354;9.588;2023-11-21T11:24:21;98020.06;;;9.28;93.38
5609;BME280;2826;51.354;9.588;2023-11-21T11:27:01;98020.91;;;9.28;93.33
5609;BME280;2826;51.354;9.588;2023-11-21T11:29:41;98024.38;;;9.29;93.53
5609;BME280;2826;51.354;9.588;2023-11-21T11:32:16;98025.13;;;9.31;93.48
5609;BME280;2826;51.354;9.588;2023-11-21T11:34:53;98026.91;;;9.31;93.58
5609;BME280;2826;51.354;9.588;2023-11-21T11:37:23;98021.66;;;9.32;93.19
5609;BME280;2826;51.354;9.588;2023-11-21T11:39:50;98033.75;;;9.32;93.62
5609;BME280;2826;51.354;9.588;2023-11-21T11:42:17;98026.16;;;9.27;93.58
5609;BME280;2826;51.354;9.588;2023-11-21T11:44:51;98033.19;;;9.23;93.83
5609;BME280;2826;51.354;9.588;2023-11-21T11:47:24;98028.00;;;9.23;94.11
5609;BME280;2826;51.354;9.588;2023-11-21T11:50:02;98038.47;;;9.20;93.89
5609;BME280;2826;51.354;9.588;2023-11-21T11:52:40;98038.47;;;9.20;94.58
5609;BME280;2826;51.354;9.588;2023-11-21T11:55:09;98034.97;;;9.21;94.30
5609;BME280;2826;51.354;9.588;2023-11-21T11:57:39;98041.09;;;9.19;94.53
5609;BME280;2826;51.354;9.588;2023-11-21T12:00:15;98026.38;;;9.21;94.92
5609;BME280;2826;51.354;9.588;2023-11-21T12:02:47;98040.03;;;9.24;94.83
5609;BME280;2826;51.354;9.588;2023-11-21T12:05:15;98009.72;;;9.04;94.71
5609;BME280;2826;51.354;9.588;2023-11-21T12:07:48;98041.00;;;9.22;94.92
5609;BME280;2826;51.354;9.588;2023-11-21T12:10:17;98042.69;;;9.23;95.09
5609;BME280;2826;51.354;9.588;2023-11-21T12:12:48;98048.75;;;9.22;95.15
5609;BME280;2826;51.354;9.588;2023-11-21T12:15:16;98046.06;;;9.25;95.27
5609;BME280;2826;51.354;9.588;2023-11-21T12:17:43;98039.22;;;9.24;95.32
5609;BME280;2826;51.354;9.588;2023-11-21T12:20:11;98043.53;;;9.23;95.58
5609;BME280;2826;51.354;9.588;2023-11-21T12:22:45;98053.66;;;9.30;95.38
5609;BME280;2826;51.354;9.588;2023-11-21T12:25:14;98051.13;;;9.28;95.26
5609;BME280;2826;51.354;9.588;2023-11-21T12:27:45;98055.38;;;9.31;94.91
5609;BME280;2826;51.354;9.588;2023-11-21T12:30:12;98054.41;;;9.33;95.32
5609;BME280;2826;51.354;9.588;2023-11-21T12:32:43;98065.53;;;9.35;94.94
5609;BME280;2826;51.354;9.588;2023-11-21T12:35:11;98059.44;;;9.36;95.19
5609;BME280;2826;51.354;9.588;2023-11-21T12:37:39;98072.38;;;9.36;95.23
5609;BME280;2826;51.354;9.588;2023-11-21T12:40:09;98063.81;;;9.36;95.30
5609;BME280;2826;51.354;9.588;2023-11-21T12:42:38;98067.84;;;9.43;95.30
5609;BME280;2826;51.354;9.588;2023-11-21T12:45:19;98072.44;;;9.35;95.77
5609;BME280;2826;51.354;9.588;2023-11-21T12:47:49;98073.06;;;9.41;95.11
5609;BME280;2826;51.354;9.588;2023-11-21T12:50:19;98076.44;;;9.44;94.53
5609;BME280;2826;51.354;9.588;2023-11-21T12:52:50;98084.56;;;9.34;94.56
5609;BME280;2826;51.354;9.588;2023-11-21T12:55:19;98096.53;;;9.37;93.82
5609;BME280;2826;51.354;9.588;2023-11-21T12:57:48;98098.78;;;9.22;94.33
5609;BME280;2826;51.354;9.588;2023-11-21T13:00:18;98101.31;;;9.24;94.42
5609;BME280;2826;51.354;9.588;2023-11-21T13:02:55;98106.22;;;9.06;94.26
5609;BME280;2826;51.354;9.588;2023-11-21T13:05:28;98114.34;;;8.95;94.01
5609;BME280;2826;51.354;9.588;2023-11-21T13:07:56;98114.72;;;8.84;93.79
5609;BME280;2826;51.354;9.588;2023-11-21T13:10:24;98123.00;;;8.67;93.53
5609;BME280;2826;51.354;9.588;2023-11-21T13:12:55;98122.28;;;8.63;92.99
5609;BME280;2826;51.354;9.588;2023-11-21T13:15:23;98130.25;;;8.57;91.48
5609;BME280;2826;51.354;9.588;2023-11-21T13:17:50;98110.16;;;8.37;91.64
5609;BME280;2826;51.354;9.588;2023-11-21T13:20:20;98131.72;;;8.36;90.65
5609;BME280;2826;51.354;9.588;2023-11-21T13:22:48;98125.69;;;8.37;90.71
5609;BME280;2826;51.354;9.588;2023-11-21T13:25:16;98125.75;;;8.34;90.17
5609;BME280;2826;51.354;9.588;2023-11-21T13:27:43;98131.38;;;8.18;89.72
5609;BME280;2826;51.354;9.588;2023-11-21T13:30:12;98132.75;;;8.02;89.97
5609;BME280;2826;51.354;9.588;2023-11-21T13:32:42;98132.31;;;8.16;89.48
5609;BME280;2826;51.354;9.588;2023-11-21T13:35:09;98144.41;;;8.15;89.39
5609;BME280;2826;51.354;9.588;2023-11-21T13:37:51;98149.44;;;8.20;88.49